createdAt,value
2023-05-27T00:01:45.718Z,58.75
2023-05-27T00:06:48.487Z,59.06
2023-05-27T00:11:50.076Z,59.66
2023-05-27T00:16:52.466Z,60.07
2023-05-27T00:21:54.291Z,60.50
2023-05-27T00:26:55.891Z,61.09
2023-05-27T00:31:57.522Z,60.86
2023-05-27T00:36:59.140Z,61.78
2023-05-27T00:42:02.850Z,62.64
2023-05-27T00:47:04.564Z,62.67
2023-05-27T00:52:06.797Z,62.63
2023-05-27T00:57:08.826Z,63.87
2023-05-27T01:02:11.641Z,64.85
2023-05-27T01:07:40.798Z,65.71
2023-05-27T01:13:00.306Z,65.61
2023-05-27T01:18:04.363Z,65.92
2023-05-27T01:23:06.055Z,65.13
2023-05-27T01:28:07.595Z,65.57
2023-05-27T01:33:14.039Z,67.08
2023-05-27T01:38:20.086Z,67.96
2023-05-27T01:43:22.790Z,66.75
2023-05-27T01:48:24.387Z,66.55
2023-05-27T01:53:26.138Z,66.96
2023-05-27T01:58:27.722Z,68.16
2023-05-27T02:03:29.481Z,67.21
2023-05-27T02:08:31.669Z,67.34
2023-05-27T02:13:33.294Z,67.93
2023-05-27T02:18:36.397Z,68.32
2023-05-27T02:23:37.943Z,69.49
2023-05-27T02:28:39.504Z,68.16
2023-05-27T02:33:41.263Z,69.93
2023-05-27T02:38:42.846Z,70.28
2023-05-27T02:43:44.412Z,69.42
2023-05-27T02:48:47.129Z,70.42
2023-05-27T02:53:48.829Z,69.53
2023-05-27T02:58:50.387Z,67.10
2023-05-27T03:03:51.971Z,65.22
2023-05-27T03:08:53.567Z,62.82
2023-05-27T03:13:55.365Z,60.73
2023-05-27T03:18:56.914Z,59.13
2023-05-27T03:23:58.462Z,57.76
2023-05-27T03:29:00.012Z,56.67
2023-05-27T03:34:01.649Z,54.99
2023-05-27T03:39:03.245Z,56.81
2023-05-27T03:44:04.997Z,59.04
2023-05-27T03:49:06.633Z,61.57
2023-05-27T03:54:08.231Z,63.03
2023-05-27T03:59:09.818Z,63.15
2023-05-27T04:04:11.743Z,64.34
2023-05-27T04:09:13.814Z,65.52
2023-05-27T04:14:15.899Z,65.69
2023-05-27T04:19:18.057Z,65.55
2023-05-27T04:24:19.593Z,65.87
2023-05-27T04:29:21.341Z,65.98
2023-05-27T04:34:22.984Z,66.22
2023-05-27T04:39:24.511Z,66.40
2023-05-27T04:44:27.880Z,65.47
2023-05-27T04:49:29.636Z,65.73
2023-05-27T04:54:35.792Z,65.84
2023-05-27T04:59:57.303Z,65.25
2023-05-27T05:04:59.797Z,64.99
2023-05-27T05:10:01.594Z,65.12
2023-05-27T05:15:04.002Z,65.03
2023-05-27T05:20:07.142Z,65.28
2023-05-27T05:25:09.111Z,65.16
2023-05-27T05:30:10.980Z,64.73
2023-05-27T05:35:12.524Z,64.37
2023-05-27T05:40:14.355Z,64.05
2023-05-27T05:45:16.042Z,63.66
2023-05-27T05:50:17.831Z,63.42
2023-05-27T05:55:19.423Z,62.89
2023-05-27T06:00:27.321Z,62.15
2023-05-27T06:05:28.901Z,61.91
2023-05-27T06:10:30.477Z,61.68
2023-05-27T06:15:33.157Z,61.29
2023-05-27T06:20:34.780Z,60.28
2023-05-27T06:25:36.424Z,60.71
2023-05-27T06:30:44.746Z,60.42
2023-05-27T06:35:46.268Z,60.24
2023-05-27T06:40:48.137Z,60.09
2023-05-27T06:46:02.425Z,60.01
2023-05-27T06:51:07.349Z,59.81
2023-05-27T06:56:08.790Z,58.67
2023-05-27T07:01:10.591Z,57.83
2023-05-27T07:06:12.339Z,57.85
2023-05-27T07:11:13.950Z,58.00
2023-05-27T07:16:15.570Z,57.89
2023-05-27T07:21:17.459Z,55.47
2023-05-27T07:26:19.105Z,55.62
2023-05-27T07:31:20.907Z,54.84
2023-05-27T07:36:22.934Z,53.93
2023-05-27T07:41:25.524Z,53.32
2023-05-27T07:46:27.289Z,53.25
2023-05-27T07:51:28.874Z,52.53
2023-05-27T07:56:30.958Z,51.93
2023-05-27T08:01:33.874Z,51.93
2023-05-27T08:06:36.941Z,50.45
2023-05-27T08:11:38.473Z,50.80
2023-05-27T08:16:40.022Z,50.64
2023-05-27T08:21:41.623Z,49.57
2023-05-27T08:26:43.147Z,49.18
2023-05-27T08:31:44.845Z,49.95
2023-05-27T08:36:46.473Z,48.49
2023-05-27T08:41:48.545Z,47.95
2023-05-27T08:46:51.487Z,47.94
2023-05-27T08:51:54.970Z,47.12
2023-05-27T08:57:00.523Z,46.45
2023-05-27T09:02:03.713Z,46.14
2023-05-27T09:07:05.612Z,45.42
2023-05-27T09:12:09.853Z,44.97
2023-05-27T09:17:11.394Z,44.48
2023-05-27T09:22:22.608Z,44.15
2023-05-27T09:27:28.332Z,43.33
2023-05-27T09:32:33.585Z,42.30
2023-05-27T09:37:35.993Z,41.64
2023-05-27T09:42:45.593Z,39.12
2023-05-27T09:47:51.867Z,39.77
2023-05-27T09:53:05.860Z,39.38
2023-05-27T09:58:13.875Z,38.58
2023-05-27T10:03:18.074Z,37.78
2023-05-27T10:13:27.064Z,35.85
2023-05-27T10:18:31.251Z,35.01
2023-05-27T10:23:33.222Z,35.09
2023-05-27T10:28:37.610Z,35.19
2023-05-27T10:33:43.266Z,35.07
2023-05-27T10:38:56.679Z,34.14
2023-05-27T10:43:59.992Z,33.53
2023-05-27T10:49:14.877Z,34.70
2023-05-27T10:54:29.053Z,34.99
2023-05-27T10:59:49.372Z,34.41
2023-05-27T11:04:52.152Z,32.77
2023-05-27T11:09:54.569Z,32.15
2023-05-27T11:14:56.981Z,30.20
2023-05-27T11:19:59.976Z,30.23
2023-05-27T11:25:04.110Z,29.27
2023-05-27T11:30:14.229Z,30.06
2023-05-27T11:35:18.385Z,30.69
2023-05-27T11:40:20.221Z,30.32
2023-05-27T11:45:23.321Z,30.89
2023-05-27T11:50:26.136Z,30.16
2023-05-27T11:55:27.729Z,30.37
2023-05-27T12:00:36.387Z,29.58
2023-05-27T12:05:37.920Z,29.21
2023-05-27T12:10:39.500Z,29.62
2023-05-27T12:15:41.153Z,29.64
2023-05-27T12:20:43.261Z,29.02
2023-05-27T12:25:44.862Z,28.59
2023-05-27T12:30:50.467Z,28.38
2023-05-27T12:35:52.900Z,28.57
2023-05-27T12:40:56.867Z,28.29
2023-05-27T12:45:59.152Z,27.98
2023-05-27T12:51:04.495Z,29.35
2023-05-27T12:56:06.483Z,28.45
2023-05-27T13:01:08.192Z,28.22
2023-05-27T13:06:09.861Z,28.72
2023-05-27T13:11:11.388Z,27.70
2023-05-27T13:16:13.896Z,27.61
2023-05-27T13:21:15.423Z,26.84
2023-05-27T13:26:17.279Z,25.86
2023-05-27T13:31:18.846Z,26.21
2023-05-27T13:36:20.560Z,26.91
2023-05-27T13:41:22.231Z,26.98
2023-05-27T13:46:23.869Z,26.84
2023-05-27T13:51:25.655Z,26.92
2023-05-27T13:56:27.378Z,26.87
2023-05-27T14:01:28.981Z,26.07
2023-05-27T14:06:31.047Z,27.49
2023-05-27T14:11:32.683Z,27.39
2023-05-27T14:16:34.278Z,27.59
2023-05-27T14:21:35.787Z,27.49
2023-05-27T14:26:37.919Z,27.60
2023-05-27T14:31:39.829Z,27.41
2023-05-27T14:36:41.865Z,28.13
2023-05-27T14:41:43.578Z,27.23
2023-05-27T14:46:45.186Z,27.58
2023-05-27T14:51:47.549Z,27.64
2023-05-27T14:56:49.369Z,26.97
2023-05-27T15:01:50.960Z,27.81
2023-05-27T15:06:52.552Z,28.04
2023-05-27T15:11:54.462Z,27.65
2023-05-27T15:16:56.069Z,27.71
2023-05-27T15:21:57.678Z,28.06
2023-05-27T15:27:00.122Z,27.57
2023-05-27T15:32:02.690Z,27.32
2023-05-27T15:37:04.281Z,27.88
2023-05-27T15:42:07.677Z,28.20
2023-05-27T15:47:09.499Z,27.79
2023-05-27T15:52:13.468Z,27.80
2023-05-27T15:57:15.066Z,28.31
2023-05-27T16:02:16.682Z,28.27
2023-05-27T16:07:18.311Z,28.78
2023-05-27T16:12:19.917Z,28.88
2023-05-27T16:17:23.247Z,28.76
2023-05-27T16:22:25.188Z,29.11
2023-05-27T16:27:27.024Z,29.10
2023-05-27T16:32:29.227Z,29.04
2023-05-27T16:37:31.290Z,28.62
2023-05-27T16:42:33.560Z,29.28
2023-05-27T16:47:36.489Z,29.65
2023-05-27T16:52:39.168Z,30.27
2023-05-27T16:57:40.734Z,30.38
2023-05-27T17:02:42.305Z,30.47
2023-05-27T17:07:44.449Z,30.64
2023-05-27T17:12:46.074Z,30.88
2023-05-27T17:17:47.630Z,31.40
2023-05-27T17:22:49.237Z,31.75
2023-05-27T17:27:50.837Z,32.77
2023-05-27T17:32:52.435Z,33.28
2023-05-27T17:37:54.086Z,34.12
2023-05-27T17:42:55.931Z,34.03
2023-05-27T17:47:57.519Z,34.40
2023-05-27T17:52:59.068Z,34.60
2023-05-27T17:58:00.822Z,34.70
2023-05-27T18:03:02.474Z,34.96
2023-05-27T18:08:04.216Z,35.17
2023-05-27T18:13:05.972Z,35.66
2023-05-27T18:18:07.527Z,35.84
2023-05-27T18:23:09.640Z,36.28
2023-05-27T18:28:11.520Z,36.79
2023-05-27T18:33:13.230Z,37.05
2023-05-27T18:38:14.998Z,37.25
2023-05-27T18:43:17.252Z,37.71
2023-05-27T18:48:19.712Z,38.04
2023-05-27T18:53:22.572Z,38.37
2023-05-27T18:58:24.152Z,38.94
2023-05-27T19:03:25.868Z,39.04
2023-05-27T19:08:27.426Z,39.08
2023-05-27T19:13:29.027Z,39.29
2023-05-27T19:18:30.714Z,39.18
2023-05-27T19:23:32.314Z,39.57
2023-05-27T19:28:33.943Z,39.99
2023-05-27T19:33:36.452Z,41.01
2023-05-27T19:38:37.997Z,41.60
2023-05-27T19:43:39.524Z,41.95
2023-05-27T19:48:41.212Z,42.24
2023-05-27T19:53:45.945Z,42.67
2023-05-27T19:58:47.760Z,43.46
2023-05-27T20:03:49.460Z,43.35
2023-05-27T20:08:51.262Z,43.93
2023-05-27T20:13:52.851Z,44.41
2023-05-27T20:18:54.489Z,44.72
2023-05-27T20:23:58.318Z,45.29
2023-05-27T20:29:01.247Z,45.61
2023-05-27T20:34:02.791Z,45.99
2023-05-27T20:39:04.473Z,46.18
2023-05-27T20:44:06.025Z,46.75
2023-05-27T20:49:07.566Z,46.89
2023-05-27T20:54:10.283Z,47.06
2023-05-27T20:59:11.893Z,47.49
2023-05-27T21:04:13.994Z,48.12
2023-05-27T21:09:15.804Z,48.52
2023-05-27T21:14:17.643Z,48.52
2023-05-27T21:19:19.227Z,49.08
2023-05-27T21:24:21.332Z,49.11
2023-05-27T21:29:22.912Z,49.60
2023-05-27T21:34:24.830Z,49.73
2023-05-27T21:39:31.002Z,50.23
2023-05-27T21:44:32.581Z,50.31
2023-05-27T21:49:34.164Z,51.73
2023-05-27T21:54:35.751Z,52.05
2023-05-27T21:59:38.118Z,52.83
2023-05-27T22:04:39.758Z,52.42
2023-05-27T22:09:41.633Z,52.22
2023-05-27T22:14:43.160Z,52.37
2023-05-27T22:19:44.705Z,53.09
2023-05-27T22:24:46.565Z,53.30
2023-05-27T22:29:50.349Z,53.46
2023-05-27T22:34:51.916Z,53.10
2023-05-27T22:39:53.480Z,53.24
2023-05-27T22:44:55.003Z,53.21
2023-05-27T22:49:56.642Z,53.25
2023-05-27T22:54:58.236Z,53.35
2023-05-27T22:59:59.793Z,52.92
2023-05-27T23:05:01.397Z,54.28
2023-05-27T23:10:03.132Z,54.47
2023-05-27T23:15:05.099Z,54.84
2023-05-27T23:20:09.237Z,55.58
2023-05-27T23:25:10.917Z,55.20
2023-05-27T23:30:12.992Z,55.04
2023-05-27T23:35:18.532Z,55.24
2023-05-27T23:40:20.112Z,56.36
2023-05-27T23:45:21.647Z,56.03
2023-05-27T23:50:23.231Z,56.38
2023-05-27T23:55:24.816Z,55.58
